Time;durP1;ratioP1;P1;durP2;ratioP2;P2;SDS_P1;SDS_P2;PMS_P1;PMS_P2;Temp;Humidity;BMP_temperature;BMP_pressure;BME280_temperature;BME280_humidity;BME280_pressure;Samples;Min_cycle;Max_cycle;Signal;HPM_P1;HPM_P2
2020/12/17 00:00:31;;;;;;;25.00;9.73;;;;;;;9.10;68.40;98722.88;5096456;28;20738;-83
2020/12/17 00:02:56;;;;;;;24.50;8.48;;;;;;;9.10;68.90;98711.59;5077137;28;20214;-84
2020/12/17 00:05:24;;;;;;;30.23;8.93;;;;;;;8.81;69.74;98714.69;5088611;28;20116;-84
2020/12/17 00:07:50;;;;;;;23.13;8.48;;;;;;;9.36;67.98;98722.41;5078181;28;20108;-83
2020/12/17 00:10:16;;;;;;;25.33;8.95;;;;;;;8.83;69.61;98720.69;5094234;28;20063;-84
2020/12/17 00:12:47;;;;;;;22.35;8.52;;;;;;;9.11;68.61;98731.56;5073640;28;20028;-83
2020/12/17 00:15:15;;;;;;;25.63;8.52;;;;;;;9.09;68.65;98718.53;5074096;28;20135;-83
2020/12/17 00:17:47;;;;;;;22.45;8.55;;;;;;;9.15;67.98;98730.59;5091816;28;20028;-84
2020/12/17 00:20:14;;;;;;;23.42;8.18;;;;;;;9.11;68.38;98723.75;5090428;28;20042;-84
2020/12/17 00:22:41;;;;;;;37.30;8.35;;;;;;;9.08;68.72;98721.16;5074911;28;20029;-84
2020/12/17 00:25:11;;;;;;;24.40;7.22;;;;;;;8.76;69.34;98721.69;5094480;28;20052;-83
2020/12/17 00:27:38;;;;;;;18.75;7.50;;;;;;;8.81;69.65;98726.84;5096554;28;20085;-85
2020/12/17 00:30:09;;;;;;;19.15;7.10;;;;;;;8.88;69.12;98718.03;5080774;28;20061;-84
2020/12/17 00:32:36;;;;;;;23.97;7.73;;;;;;;9.11;68.53;98723.75;5078934;28;20035;-84
2020/12/17 00:35:02;;;;;;;26.60;7.38;;;;;;;8.83;69.04;98725.91;5098933;28;20283;-84
2020/12/17 00:37:31;;;;;;;30.23;7.85;;;;;;;8.80;69.36;98728.56;5084423;28;20057;-84
2020/12/17 00:39:57;;;;;;;28.02;8.13;;;;;;;8.51;70.25;98728.16;5078478;28;20091;-84
2020/12/17 00:42:23;;;;;;;32.17;8.13;;;;;;;8.39;70.48;98713.59;5094476;28;20063;-85
2020/12/17 00:44:49;;;;;;;27.15;9.52;;;;;;;8.80;69.42;98723.38;5094160;28;20036;-83
2020/12/17 00:47:15;;;;;;;20.67;7.18;;;;;;;8.86;68.72;98717.22;5092572;28;20085;-86
2020/12/17 00:49:53;;;;;;;24.10;7.82;;;;;;;8.95;68.35;98727.47;5081364;28;20174;-84
2020/12/17 00:52:22;;;;;;;24.85;8.25;;;;;;;8.84;68.88;98729.38;5095918;28;20047;-84
2020/12/17 00:54:48;;;;;;;20.88;7.78;;;;;;;8.55;69.39;98728.09;5078750;28;20462;-85
2020/12/17 00:57:59;;;;;;;;;;;;;;;;;;;;;
2020/12/17 01:00:27;;;;;;;22.17;7.27;;;;;;;8.62;69.70;98718.44;5091990;28;20169;-83
2020/12/17 01:02:53;;;;;;;28.17;6.88;;;;;;;8.49;70.25;98722.13;5099358;28;20869;-84
2020/12/17 01:05:18;;;;;;;15.82;7.22;;;;;;;8.88;68.61;98724.09;5078405;28;20051;-84
2020/12/17 01:07:44;;;;;;;20.10;7.28;;;;;;;8.83;68.90;98725.03;5054963;28;20118;-83
2020/12/17 01:10:10;;;;;;;22.63;7.55;;;;;;;8.52;70.01;98717.72;5056296;28;20040;-84
2020/12/17 01:12:45;;;;;;;20.42;7.43;;;;;;;8.44;70.13;98722.16;5060010;28;20077;-84
2020/12/17 01:15:10;;;;;;;22.00;7.72;;;;;;;8.78;69.24;98726.91;5073504;28;20235;-83
2020/12/17 01:17:36;;;;;;;29.63;8.82;;;;;;;8.65;69.32;98734.88;5038143;28;20186;-85
2020/12/17 01:20:03;;;;;;;27.98;7.65;;;;;;;8.46;70.31;98735.16;5076006;28;20076;-83
2020/12/17 01:22:29;;;;;;;25.45;7.75;;;;;;;8.55;69.69;98741.09;5039157;28;20040;-83
2020/12/17 01:24:55;;;;;;;18.73;8.63;;;;;;;8.63;69.93;98741.00;5072016;28;20052;-84
2020/12/17 01:27:23;;;;;;;23.17;9.70;;;;;;;9.06;68.46;98747.25;5034208;28;20467;-84
2020/12/17 01:29:49;;;;;;;21.23;9.38;;;;;;;8.82;69.44;98729.44;5031291;28;20128;-85
2020/12/17 01:32:15;;;;;;;20.30;9.00;;;;;;;8.39;70.09;98731.81;5017903;28;20088;-84
2020/12/17 01:34:47;;;;;;;25.17;9.38;;;;;;;8.70;69.88;98740.88;5039834;28;20029;-84
2020/12/17 01:37:15;;;;;;;26.08;11.05;;;;;;;8.63;69.40;98741.00;5037981;28;20072;-84
2020/12/17 01:39:41;;;;;;;24.10;9.55;;;;;;;8.61;69.63;98746.22;5038260;28;20050;-83
2020/12/17 01:42:06;;;;;;;21.83;9.45;;;;;;;8.70;69.74;98745.22;5018435;28;20472;-80
2020/12/17 01:44:37;;;;;;;20.95;8.75;;;;;;;8.54;70.11;98747.19;5024886;28;20099;-84
2020/12/17 01:47:03;;;;;;;21.02;9.82;;;;;;;8.52;70.04;98754.16;5023046;28;20516;-85
2020/12/17 01:49:29;;;;;;;21.05;9.13;;;;;;;8.39;70.43;98757.84;5059302;28;20499;-84
2020/12/17 01:51:55;;;;;;;20.90;9.98;;;;;;;8.57;70.35;98765.38;5058093;28;20036;-83
2020/12/17 01:54:21;;;;;;;23.00;9.93;;;;;;;8.30;71.04;98761.41;5060331;28;20028;-85
2020/12/17 01:56:51;;;;;;;18.85;9.88;;;;;;;8.55;70.66;98774.94;5075945;28;20099;-84
2020/12/17 01:59:22;;;;;;;32.00;10.93;;;;;;;8.45;70.83;98768.13;5096033;28;20047;-82
2020/12/17 02:01:51;;;;;;;20.55;8.73;;;;;;;8.84;69.49;98769.31;5101020;28;20036;-86
2020/12/17 02:04:23;;;;;;;22.60;9.57;;;;;;;8.83;69.27;98774.53;5064791;28;20052;-84
2020/12/17 02:06:57;;;;;;;26.90;9.55;;;;;;;9.21;67.95;98777.38;5095440;28;20032;-84
2020/12/17 02:09:23;;;;;;;24.88;10.95;;;;;;;9.23;67.99;98779.97;5059943;28;20798;-83
2020/12/17 02:11:59;;;;;;;25.55;11.27;;;;;;;9.06;68.14;98770.72;5094841;28;20038;-85
2020/12/17 02:14:26;;;;;;;23.25;9.88;;;;;;;9.17;68.31;98780.94;5090998;28;20044;-84
2020/12/17 02:16:55;;;;;;;23.77;9.55;;;;;;;9.02;68.01;98786.38;5095179;28;20074;-85
2020/12/17 02:19:21;;;;;;;25.50;10.73;;;;;;;9.66;65.93;98794.00;5082377;28;20036;-84
2020/12/17 02:21:47;;;;;;;29.25;12.20;;;;;;;9.23;67.26;98793.88;5077687;28;20040;-84
2020/12/17 02:24:17;;;;;;;23.80;10.77;;;;;;;9.09;68.16;98793.22;5079955;28;20059;-85
2020/12/17 02:27:02;;;;;;;25.23;10.98;;;;;;;9.35;67.04;98793.66;5079996;28;20032;-85
2020/12/17 02:29:28;;;;;;;22.55;10.43;;;;;;;8.94;68.92;98793.47;5077122;28;20119;-85
2020/12/17 02:31:53;;;;;;;26.48;11.10;;;;;;;9.03;68.62;98796.78;5081670;28;20039;-85
2020/12/17 02:34:19;;;;;;;26.27;12.13;;;;;;;8.83;69.20;98805.78;5091841;28;20505;-84
2020/12/17 02:36:45;;;;;;;33.30;11.88;;;;;;;8.86;69.29;98800.53;5097736;28;20028;-84
2020/12/17 02:39:12;;;;;;;26.70;12.20;;;;;;;8.81;69.82;98800.63;5094825;28;20347;-85
2020/12/17 02:41:39;;;;;;;25.48;10.68;;;;;;;9.14;68.27;98796.63;5075382;28;20129;-84
2020/12/17 02:44:05;;;;;;;26.75;11.65;;;;;;;9.12;68.60;98806.19;5095364;28;20043;-83
2020/12/17 02:46:34;;;;;;;26.17;11.38;;;;;;;9.23;68.08;98812.13;5099495;28;20116;-84
2020/12/17 02:49:01;;;;;;;25.05;10.82;;;;;;;9.01;68.76;98814.22;5075376;28;20084;-84
2020/12/17 02:51:26;;;;;;;25.27;10.98;;;;;;;9.53;66.85;98810.75;5099182;28;20039;-82
2020/12/17 02:53:52;;;;;;;26.75;10.32;;;;;;;9.16;68.55;98808.72;5094974;28;20032;-82
2020/12/17 02:56:17;;;;;;;28.35;11.05;;;;;;;9.31;68.00;98804.16;5095968;28;20104;-83
2020/12/17 02:58:44;;;;;;;21.35;11.23;;;;;;;9.29;67.92;98822.44;5093884;28;20028;-83
2020/12/17 03:01:10;;;;;;;18.73;10.95;;;;;;;9.04;68.51;98814.16;5071246;28;20032;-83
2020/12/17 03:03:36;;;;;;;29.15;11.02;;;;;;;9.12;68.35;98809.66;5097406;28;20047;-83
2020/12/17 03:06:02;;;;;;;30.83;10.98;;;;;;;9.26;68.29;98822.47;5095778;28;20036;-83
2020/12/17 03:08:28;;;;;;;23.65;10.13;;;;;;;8.72;70.02;98818.97;5095761;28;20145;-83
2020/12/17 03:10:54;;;;;;;36.83;11.27;;;;;;;9.17;68.99;98818.28;5095120;28;20036;-83
2020/12/17 03:13:20;;;;;;;27.50;10.23;;;;;;;9.22;68.04;98815.59;5079800;28;20040;-84
2020/12/17 03:15:46;;;;;;;28.38;11.57;;;;;;;9.35;67.79;98821.50;5094277;28;20039;-83
2020/12/17 03:18:12;;;;;;;22.23;9.35;;;;;;;9.06;68.87;98816.75;5090828;28;20032;-83
2020/12/17 03:20:37;;;;;;;37.90;10.57;;;;;;;9.17;68.46;98815.66;5096289;28;20089;-83
2020/12/17 03:23:03;;;;;;;29.92;10.20;;;;;;;9.49;66.98;98811.69;5095925;28;20073;-84
2020/12/17 03:25:32;;;;;;;29.33;10.30;;;;;;;9.14;69.17;98818.34;5093549;28;20044;-84
2020/12/17 03:27:57;;;;;;;23.75;9.27;;;;;;;9.07;69.21;98815.84;5098103;28;20060;-83
2020/12/17 03:30:23;;;;;;;21.17;10.70;;;;;;;9.51;67.93;98821.19;5093836;28;20024;-83
2020/12/17 03:32:52;;;;;;;24.80;9.98;;;;;;;9.41;67.92;98810.94;5095541;28;20024;-83
2020/12/17 03:35:17;;;;;;;25.92;9.82;;;;;;;9.17;69.41;98813.06;5095447;28;20036;-83
2020/12/17 03:37:43;;;;;;;24.10;9.60;;;;;;;9.55;67.88;98809.81;5095847;28;20042;-84
2020/12/17 03:40:09;;;;;;;20.17;9.95;;;;;;;9.44;68.69;98808.31;5096034;28;20059;-83
2020/12/17 03:42:35;;;;;;;21.80;9.65;;;;;;;9.31;68.62;98805.03;5076453;28;20028;-83
2020/12/17 03:45:00;;;;;;;29.23;9.52;;;;;;;9.31;68.83;98799.81;5089365;28;20040;-82
2020/12/17 03:47:26;;;;;;;25.13;10.13;;;;;;;9.54;67.78;98815.91;5090288;28;20071;-83
2020/12/17 03:49:52;;;;;;;19.85;10.40;;;;;;;9.61;67.19;98807.09;5096743;28;20040;-83
2020/12/17 03:52:18;;;;;;;24.95;10.73;;;;;;;9.44;68.15;98817.00;5089906;28;20031;-84
2020/12/17 03:54:43;;;;;;;24.25;10.23;;;;;;;9.44;67.91;98817.00;5094659;28;20032;-83
2020/12/17 03:57:09;;;;;;;29.15;9.85;;;;;;;9.54;67.49;98802.88;5098597;28;20665;-84
2020/12/17 03:59:35;;;;;;;22.23;10.05;;;;;;;9.19;69.11;98806.09;5073717;28;20482;-83
2020/12/17 04:02:00;;;;;;;24.25;10.23;;;;;;;9.48;68.20;98805.63;5106840;28;20028;-83
2020/12/17 04:04:26;;;;;;;29.48;10.75;;;;;;;9.45;67.93;98802.19;5098023;28;20107;-83
2020/12/17 04:06:51;;;;;;;23.50;12.02;;;;;;;9.15;69.37;98796.63;5093367;28;20094;-83
2020/12/17 04:09:17;;;;;;;27.00;11.07;;;;;;;9.17;69.55;98801.78;5087115;28;20036;-84
2020/12/17 04:11:43;;;;;;;22.95;11.07;;;;;;;9.19;69.33;98797.41;5089711;28;20039;-83
2020/12/17 04:14:08;;;;;;;27.23;13.02;;;;;;;9.04;69.44;98802.88;5088255;28;20065;-84
2020/12/17 04:16:34;;;;;;;24.27;12.18;;;;;;;9.17;69.52;98797.44;5072767;28;20040;-83
2020/12/17 04:18:59;;;;;;;29.77;11.07;;;;;;;9.20;69.87;98806.97;5092848;28;20055;-83
2020/12/17 04:21:25;;;;;;;21.45;12.05;;;;;;;9.31;69.13;98799.81;5100394;28;20028;-83
2020/12/17 04:23:51;;;;;;;31.77;14.23;;;;;;;9.28;69.81;98791.19;5078190;28;20107;-83
2020/12/17 04:26:16;;;;;;;27.88;13.63;;;;;;;9.25;69.07;98796.47;5076554;28;20032;-83
2020/12/17 04:28:44;;;;;;;31.83;15.25;;;;;;;9.19;69.49;98795.69;5076830;28;20060;-84
2020/12/17 04:31:11;;;;;;;33.17;16.77;;;;;;;9.75;67.83;98798.16;5095703;28;20048;-83
2020/12/17 04:33:37;;;;;;;31.50;17.25;;;;;;;9.47;68.71;98787.38;5095723;28;20119;-84
2020/12/17 04:36:04;;;;;;;39.90;16.20;;;;;;;9.38;69.15;98792.75;5094927;28;20028;-83
2020/12/17 04:38:29;;;;;;;32.90;16.20;;;;;;;9.59;68.42;98789.78;5076242;28;20036;-84
2020/12/17 04:40:56;;;;;;;31.38;14.40;;;;;;;9.51;68.50;98797.72;5095206;28;20043;-83
2020/12/17 04:43:21;;;;;;;30.65;14.25;;;;;;;9.53;68.71;98802.94;5091983;28;20039;-85
2020/12/17 04:45:48;;;;;;;22.48;12.68;;;;;;;9.26;69.29;98804.22;5089959;28;20362;-85
2020/12/17 04:48:17;;;;;;;27.88;12.68;;;;;;;9.48;68.61;98802.16;5093337;28;20060;-84
2020/12/17 04:50:44;;;;;;;19.17;11.90;;;;;;;8.99;70.25;98796.88;5087558;28;20020;-84
2020/12/17 04:53:14;;;;;;;24.30;11.90;;;;;;;9.12;70.27;98806.19;5098440;28;20058;-84
2020/12/17 04:55:41;;;;;;;24.08;12.15;;;;;;;8.99;70.48;98809.88;5086589;28;20051;-84
2020/12/17 04:58:09;;;;;;;22.25;9.85;;;;;;;9.18;70.35;98809.59;5099792;28;20237;-84
2020/12/17 05:00:41;;;;;;;20.90;9.18;;;;;;;9.14;69.98;98810.53;5092870;28;20474;-84
2020/12/17 05:03:13;;;;;;;26.35;10.73;;;;;;;9.06;70.50;98814.13;5100852;28;20067;-83
2020/12/17 05:05:39;;;;;;;16.52;9.38;;;;;;;8.95;71.04;98827.31;5095843;28;20032;-83
2020/12/17 05:08:05;;;;;;;24.42;9.85;;;;;;;9.08;70.66;98823.63;5092775;28;20032;-84
2020/12/17 05:10:31;;;;;;;25.63;11.32;;;;;;;9.10;70.29;98828.84;5076636;28;20101;-84
2020/12/17 05:12:57;;;;;;;20.60;10.93;;;;;;;8.91;70.88;98832.59;5078618;28;20035;-84
2020/12/17 05:15:26;;;;;;;22.15;9.90;;;;;;;9.10;70.75;98831.44;5094333;28;20039;-84
2020/12/17 05:17:55;;;;;;;18.92;8.40;;;;;;;9.17;70.15;98835.66;5086411;28;20037;-84
2020/12/17 05:20:20;;;;;;;24.98;10.13;;;;;;;9.07;70.14;98837.53;5096876;28;20036;-84
2020/12/17 05:22:47;;;;;;;21.58;7.78;;;;;;;8.92;70.78;98842.97;5094193;28;20085;-84
2020/12/17 05:25:14;;;;;;;19.70;6.32;;;;;;;9.20;70.21;98840.84;5095036;28;20043;-84
2020/12/17 05:27:42;;;;;;;26.50;7.45;;;;;;;9.06;70.42;98840.19;5096670;28;20031;-84
2020/12/17 05:30:08;;;;;;;28.30;7.30;;;;;;;9.22;69.59;98851.22;5097373;28;20032;-83
2020/12/17 05:32:33;;;;;;;27.25;7.55;;;;;;;8.80;71.22;98843.16;5102477;28;20054;-84
2020/12/17 05:35:03;;;;;;;17.60;7.07;;;;;;;9.03;70.39;98854.09;5097980;28;20096;-84
2020/12/17 05:37:30;;;;;;;14.90;7.05;;;;;;;9.09;70.01;98858.38;5091709;28;20443;-84
2020/12/17 05:40:03;;;;;;;16.67;6.20;;;;;;;8.83;70.97;98855.25;5099758;28;20024;-85
2020/12/17 05:42:28;;;;;;;21.40;7.22;;;;;;;8.99;70.72;98862.84;5077799;28;20012;-85
2020/12/17 05:44:54;;;;;;;24.90;9.10;;;;;;;8.96;70.50;98867.25;5094080;28;20132;-85
2020/12/17 05:47:20;;;;;;;23.13;9.32;;;;;;;8.91;70.82;98874.28;5094452;28;20062;-84
2020/12/17 05:49:46;;;;;;;25.30;10.32;;;;;;;9.35;69.08;98877.06;5099488;28;20031;-84
2020/12/17 05:52:22;;;;;;;27.63;14.00;;;;;;;9.38;68.74;98886.59;5097034;28;20033;-85
2020/12/17 05:54:53;;;;;;;29.88;14.52;;;;;;;9.14;69.19;98887.81;5081322;28;20028;-83
2020/12/17 05:57:20;;;;;;;23.92;13.93;;;;;;;9.17;68.77;98886.03;5100313;28;20051;-85
2020/12/17 06:00:01;;;;;;;25.85;14.43;;;;;;;9.50;68.42;98892.47;5093358;28;20512;-84
2020/12/17 06:02:32;;;;;;;27.65;16.00;;;;;;;9.42;68.64;98896.94;5072737;28;20032;-83
2020/12/17 06:05:03;;;;;;;31.38;15.95;;;;;;;9.28;68.94;98901.50;5090035;28;20517;-83
2020/12/17 06:07:39;;;;;;;28.15;15.70;;;;;;;9.32;68.61;98910.13;5088160;28;20036;-83
2020/12/17 06:10:06;;;;;;;29.83;15.30;;;;;;;9.29;69.24;98911.06;5073966;28;20505;-83
2020/12/17 06:12:36;;;;;;;27.08;14.32;;;;;;;9.16;69.40;98906.88;5070093;28;20024;-84
2020/12/17 06:15:05;;;;;;;30.75;14.77;;;;;;;9.41;68.52;98910.88;5104009;28;20035;-83
2020/12/17 06:17:43;;;;;;;25.75;16.23;;;;;;;8.97;69.81;98910.66;5089440;28;20024;-85
2020/12/17 06:20:09;;;;;;;25.90;15.45;;;;;;;9.32;68.71;98916.22;5097162;28;20062;-84
2020/12/17 06:22:36;;;;;;;33.40;17.58;;;;;;;9.73;67.29;98917.34;5095164;28;20051;-84
2020/12/17 06:25:02;;;;;;;33.90;16.98;;;;;;;9.40;68.64;98916.13;5097541;28;20048;-84
2020/12/17 06:27:31;;;;;;;30.02;16.98;;;;;;;9.57;67.94;98916.72;5073846;28;20036;-83
2020/12/17 06:30:18;;;;;;;25.48;15.73;;;;;;;9.51;67.56;98929.84;5092267;28;20035;-84
2020/12/17 06:32:44;;;;;;;32.33;15.02;;;;;;;9.33;68.22;98930.13;5093274;28;20126;-84
2020/12/17 06:35:28;;;;;;;23.38;13.63;;;;;;;9.47;68.09;98936.84;5092871;28;20060;-85
2020/12/17 06:38:05;;;;;;;26.80;12.40;;;;;;;9.33;68.59;98933.59;5100788;28;20023;-85
2020/12/17 06:40:31;;;;;;;24.27;14.18;;;;;;;9.72;66.56;98934.72;5082361;28;20036;-84
2020/12/17 06:42:57;;;;;;;22.88;14.55;;;;;;;9.47;67.24;98936.84;5096068;28;20027;-84
2020/12/17 06:45:25;;;;;;;25.25;15.02;;;;;;;9.57;67.06;98941.03;5104069;28;20062;-84
2020/12/17 06:47:51;;;;;;;24.05;15.02;;;;;;;9.31;67.56;98945.75;5099906;28;20048;-84
2020/12/17 06:50:21;;;;;;;26.27;16.88;;;;;;;9.40;67.77;98944.78;5081971;28;20036;-84
2020/12/17 06:53:06;;;;;;;23.27;16.33;;;;;;;9.45;67.90;98956.00;5081215;28;20094;-83
2020/12/17 06:55:50;;;;;;;30.83;19.33;;;;;;;9.57;67.33;98961.03;5093939;28;20024;-84
2020/12/17 06:58:23;;;;;;;28.98;17.33;;;;;;;9.25;68.35;98956.31;5081212;28;20067;-85
2020/12/17 07:00:58;;;;;;;42.63;15.18;;;;;;;9.39;67.61;98951.75;5099516;28;20096;-86
2020/12/17 07:03:49;;;;;;;28.70;14.15;;;;;;;9.48;68.19;98954.22;5094959;28;20475;-83
2020/12/17 07:06:23;;;;;;;23.70;10.15;;;;;;;9.41;68.34;98962.13;5072397;28;20040;-85
2020/12/17 07:08:56;;;;;;;17.42;10.35;;;;;;;9.10;69.09;98956.50;5088740;28;20132;-85
2020/12/17 07:11:51;;;;;;;16.60;10.18;;;;;;;9.07;69.20;98961.75;5074157;28;20127;-84
2020/12/17 07:14:26;;;;;;;18.52;9.15;;;;;;;9.31;68.22;98960.53;5012262;28;20049;-83
2020/12/17 07:17:00;;;;;;;29.00;10.95;;;;;;;9.48;67.33;98966.41;5028586;28;20535;-84
2020/12/17 07:19:30;;;;;;;24.45;12.27;;;;;;;9.13;68.54;98961.66;4992189;28;20127;-84
2020/12/17 07:22:01;;;;;;;26.38;12.98;;;;;;;9.45;67.67;98966.41;4995512;28;20488;-84
2020/12/17 07:24:51;;;;;;;21.50;12.18;;;;;;;9.29;67.89;98970.16;5014113;28;20054;-85
2020/12/17 07:27:21;;;;;;;21.05;10.85;;;;;;;9.28;68.93;98982.31;5035610;28;20095;-85
2020/12/17 07:29:48;;;;;;;19.33;10.82;;;;;;;9.27;68.43;98984.94;5035800;28;20080;-85
2020/12/17 07:32:36;;;;;;;21.23;11.05;;;;;;;9.15;69.32;98979.03;5035521;28;20041;-84
2020/12/17 07:35:07;;;;;;;23.58;12.55;;;;;;;9.29;68.70;98981.44;5023533;28;20271;-84
2020/12/17 07:37:32;;;;;;;25.17;14.27;;;;;;;9.33;68.60;98987.47;5037047;28;20065;-85
2020/12/17 07:40:01;;;;;;;21.67;13.50;;;;;;;9.15;68.86;98985.97;5037351;28;20042;-85
2020/12/17 07:42:27;;;;;;;27.75;14.10;;;;;;;9.15;69.09;98986.84;5038783;28;20030;-84
2020/12/17 07:44:53;;;;;;;30.65;11.80;;;;;;;8.89;69.73;98993.22;5020290;28;20046;-84
2020/12/17 07:47:19;;;;;;;20.02;9.23;;;;;;;9.47;67.70;99002.03;5014836;28;20064;-85
2020/12/17 07:49:48;;;;;;;13.90;7.95;;;;;;;9.61;66.97;98996.59;5008542;28;20125;-85
2020/12/17 07:52:37;;;;;;;13.27;7.85;;;;;;;9.61;66.75;99005.28;5091639;28;20187;-87
2020/12/17 07:55:03;;;;;;;16.30;8.13;;;;;;;9.07;67.72;99009.50;5076563;28;20040;-84
2020/12/17 07:57:29;;;;;;;16.63;8.00;;;;;;;9.40;67.46;99017.78;5086722;28;20032;-83
2020/12/17 07:59:55;;;;;;;16.92;8.00;;;;;;;9.64;67.03;99014.81;5089611;28;20046;-84
2020/12/17 08:02:21;;;;;;;13.63;8.27;;;;;;;9.72;65.96;99018.19;5082002;28;20028;-86
2020/12/17 08:04:48;;;;;;;17.65;8.00;;;;;;;9.22;67.49;99023.22;5069600;28;20032;-84
2020/12/17 08:07:14;;;;;;;15.00;6.85;;;;;;;9.69;65.97;99035.63;5068454;28;20047;-84
2020/12/17 08:09:41;;;;;;;13.70;6.53;;;;;;;9.50;66.59;99030.66;5087960;28;20044;-84
2020/12/17 08:12:11;;;;;;;10.25;5.07;;;;;;;9.70;66.60;99040.81;5072669;28;20024;-86
2020/12/17 08:14:37;;;;;;;18.42;6.05;;;;;;;9.44;66.45;99030.75;5064882;28;20520;-85
2020/12/17 08:17:04;;;;;;;17.98;5.05;;;;;;;9.65;65.66;99040.00;5073117;28;20032;-84
2020/12/17 08:19:31;;;;;;;15.40;4.60;;;;;;;9.58;66.33;99043.59;5090171;28;20119;-85
2020/12/17 08:21:58;;;;;;;12.25;4.35;;;;;;;9.42;66.76;99047.28;5070340;28;20187;-85
2020/12/17 08:24:28;;;;;;;19.17;4.20;;;;;;;9.33;66.53;99053.50;5088695;28;20513;-85
2020/12/17 08:26:54;;;;;;;15.20;2.92;;;;;;;9.47;67.21;99053.31;5086952;28;20355;-84
2020/12/17 08:29:25;;;;;;;10.07;2.80;;;;;;;9.71;66.09;99058.19;5091899;28;20032;-85
2020/12/17 08:31:55;;;;;;;9.10;2.78;;;;;;;9.25;67.05;99057.94;5069724;28;20079;-86
2020/12/17 08:34:20;;;;;;;10.68;3.00;;;;;;;9.60;65.82;99071.38;5070316;28;20035;-86
2020/12/17 08:36:46;;;;;;;9.20;4.35;;;;;;;9.45;66.63;99062.88;5068105;28;20118;-85
2020/12/17 08:39:16;;;;;;;15.18;3.80;;;;;;;9.72;66.03;99072.09;5070095;28;20036;-86
2020/12/17 08:41:56;;;;;;;15.82;3.63;;;;;;;9.49;66.14;99080.22;5088144;28;20043;-85
2020/12/17 08:44:44;;;;;;;12.13;3.75;;;;;;;9.76;65.75;99084.19;5089011;28;20032;-85
2020/12/17 08:47:14;;;;;;;12.40;4.43;;;;;;;9.53;66.34;99072.34;5083629;28;20048;-84
2020/12/17 08:49:43;;;;;;;9.98;3.45;;;;;;;9.52;66.59;99074.97;5082724;28;20117;-81
2020/12/17 08:52:09;;;;;;;9.93;3.42;;;;;;;9.89;65.10;99086.63;5063791;28;20732;-83
2020/12/17 08:54:38;;;;;;;10.52;3.40;;;;;;;9.84;65.96;99085.81;5067041;28;20042;-83
2020/12/17 08:57:09;;;;;;;13.85;3.60;;;;;;;9.87;65.47;99093.63;5063431;28;20028;-84
2020/12/17 08:59:39;;;;;;;11.13;3.03;;;;;;;10.19;64.66;99092.31;5100110;28;20036;-83
2020/12/17 09:02:05;;;;;;;13.13;3.10;;;;;;;9.97;65.12;99091.75;5084798;28;20466;-83
2020/12/17 09:04:31;;;;;;;16.88;3.88;;;;;;;9.97;65.00;99095.22;5081391;28;20051;-85
2020/12/17 09:07:02;;;;;;;10.80;2.95;;;;;;;10.07;65.06;99109.00;5088507;28;20087;-85
2020/12/17 09:09:30;;;;;;;10.13;4.53;;;;;;;10.80;63.90;99110.41;5079723;28;20367;-82
2020/12/17 09:11:59;;;;;;;13.48;3.70;;;;;;;11.63;61.09;99116.66;5088415;28;20030;-88
2020/12/17 09:14:29;;;;;;;15.15;3.20;;;;;;;12.45;58.52;99125.31;5081450;28;20048;-86
2020/12/17 09:17:10;;;;;;;6.80;2.35;;;;;;;13.35;55.09;99121.22;5081308;28;20044;-84
2020/12/17 09:19:39;;;;;;;8.82;2.50;;;;;;;14.09;52.20;99120.81;5079052;28;20119;-83
2020/12/17 09:22:06;;;;;;;5.95;1.80;;;;;;;14.25;51.20;99124.66;5086139;28;20063;-84
2020/12/17 09:24:34;;;;;;;9.68;2.28;;;;;;;14.67;49.47;99132.16;5066417;28;20052;-84
2020/12/17 09:27:15;;;;;;;10.07;3.08;;;;;;;15.11;49.00;99133.25;5069100;28;20093;-85
2020/12/17 09:29:43;;;;;;;11.15;2.80;;;;;;;15.74;48.02;99142.41;5096945;28;20032;-83
2020/12/17 09:32:19;;;;;;;10.63;2.35;;;;;;;16.49;45.89;99147.41;5065315;28;20676;-83
2020/12/17 09:34:45;;;;;;;6.53;1.77;;;;;;;16.45;45.85;99140.50;5078638;28;20477;-83
2020/12/17 09:37:14;;;;;;;8.95;2.13;;;;;;;15.85;46.27;99142.88;5080134;28;20058;-85
2020/12/17 09:39:44;;;;;;;12.20;2.92;;;;;;;16.42;44.61;99148.56;5069713;28;20040;-91
2020/12/17 09:42:18;;;;;;;11.80;2.35;;;;;;;16.65;44.35;99152.06;5088331;28;20130;-85
2020/12/17 09:44:44;;;;;;;9.23;2.35;;;;;;;16.52;44.49;99156.94;5087258;28;20527;-85
2020/12/17 09:47:10;;;;;;;4.80;1.73;;;;;;;16.95;43.36;99158.72;5081110;28;20068;-83
2020/12/17 09:49:37;;;;;;;6.88;2.13;;;;;;;17.18;43.63;99155.97;5081449;28;20513;-85
2020/12/17 09:52:11;;;;;;;10.70;1.85;;;;;;;17.80;40.71;99171.75;5082289;28;20032;-84
2020/12/17 09:54:43;;;;;;;5.22;2.20;;;;;;;18.03;42.22;99169.84;5095919;28;20085;-81
2020/12/17 09:57:15;;;;;;;12.27;2.45;;;;;;;17.72;41.86;99173.88;5092856;28;20131;-80
2020/12/17 09:59:43;;;;;;;6.03;2.03;;;;;;;17.25;43.58;99162.72;5081861;28;20024;-82
2020/12/17 10:02:14;;;;;;;6.47;2.13;;;;;;;15.36;48.43;99178.84;5066332;28;20043;-83
2020/12/17 10:04:43;;;;;;;6.95;2.08;;;;;;;16.03;46.02;99171.16;5086885;28;20046;-84
2020/12/17 10:07:09;;;;;;;5.72;1.80;;;;;;;16.17;45.54;99179.41;5076990;28;20627;-83
2020/12/17 10:09:35;;;;;;;11.68;2.33;;;;;;;16.82;44.98;99176.00;5081339;28;20061;-84
2020/12/17 10:12:02;;;;;;;9.35;2.45;;;;;;;17.31;43.49;99183.56;5082232;28;20024;-84
2020/12/17 10:14:29;;;;;;;9.90;1.92;;;;;;;17.21;42.56;99186.69;5082532;28;20032;-84
2020/12/17 10:16:59;;;;;;;8.00;1.70;;;;;;;19.14;40.19;99191.81;5067850;28;20082;-87
2020/12/17 10:19:27;;;;;;;6.72;1.48;;;;;;;18.00;40.17;99180.56;5084620;28;20031;-82
2020/12/17 10:21:56;;;;;;;7.65;2.00;;;;;;;18.29;39.42;99199.44;5056501;28;20136;-87
2020/12/17 10:24:23;;;;;;;7.32;1.98;;;;;;;16.93;43.64;99208.91;5045423;28;20040;-82
2020/12/17 10:26:48;;;;;;;7.38;1.80;;;;;;;17.52;41.11;99204.69;5028829;28;20047;-80
2020/12/17 10:29:20;;;;;;;5.50;1.35;;;;;;;17.12;43.27;99214.28;5047113;28;20151;-84
2020/12/17 10:31:50;;;;;;;8.25;1.60;;;;;;;17.06;44.14;99209.28;5042849;28;20051;-80
2020/12/17 10:34:17;;;;;;;4.93;1.60;;;;;;;17.12;42.95;99216.94;5068006;28;20036;-86
2020/12/17 10:36:50;;;;;;;7.47;2.03;;;;;;;17.52;43.50;99221.41;5065691;28;20219;-86
2020/12/17 10:39:16;;;;;;;5.07;1.65;;;;;;;17.69;41.14;99216.28;5042192;28;20123;-85
2020/12/17 10:41:42;;;;;;;5.82;1.70;;;;;;;18.32;39.96;99221.41;5058772;28;20207;-85
2020/12/17 10:44:08;;;;;;;5.60;1.60;;;;;;;16.58;44.54;99222.69;5063301;28;20037;-83
2020/12/17 10:46:36;;;;;;;12.02;2.30;;;;;;;17.28;42.60;99220.66;5022668;28;20042;-88
2020/12/17 10:49:03;;;;;;;11.30;2.83;;;;;;;18.26;40.48;99217.25;5012501;28;20057;-89
2020/12/17 10:51:29;;;;;;;6.20;1.98;;;;;;;17.64;41.86;99218.28;5024230;28;20041;-87
2020/12/17 10:53:55;;;;;;;7.40;1.48;;;;;;;17.87;41.52;99217.25;5027000;28;20121;-85
2020/12/17 10:56:20;;;;;;;9.52;2.38;;;;;;;18.16;41.18;99218.59;5040547;28;20150;-83
2020/12/17 10:58:50;;;;;;;8.57;2.00;;;;;;;18.65;39.92;99227.78;5027467;28;20468;-90
2020/12/17 11:01:21;;;;;;;8.63;2.13;;;;;;;18.70;40.87;99223.97;5029237;28;20033;-92
2020/12/17 11:03:48;;;;;;;8.05;1.20;;;;;;;19.50;39.25;99215.63;5025714;28;20048;-91
2020/12/17 11:06:23;;;;;;;6.50;1.27;;;;;;;18.63;39.51;99209.31;5033305;28;20083;-88
2020/12/17 11:08:49;;;;;;;11.38;2.03;;;;;;;17.71;42.27;99217.06;5029048;28;20041;-87
2020/12/17 11:11:15;;;;;;;7.78;1.73;;;;;;;16.92;43.66;99222.19;5027208;28;20037;-85
2020/12/17 11:13:41;;;;;;;10.13;1.58;;;;;;;16.72;44.17;99216.84;5024708;28;20083;-82
2020/12/17 11:16:07;;;;;;;5.35;1.55;;;;;;;17.15;43.72;99229.16;5026693;28;20045;-83
2020/12/17 11:18:34;;;;;;;6.22;1.30;;;;;;;17.34;42.95;99230.97;5068069;28;20047;-87
2020/12/17 11:20:59;;;;;;;8.75;1.80;;;;;;;16.99;43.72;99229.78;5091624;28;20119;-88
2020/12/17 11:23:28;;;;;;;5.68;1.55;;;;;;;16.29;45.42;99220.28;5097747;28;20064;-87
2020/12/17 11:25:54;;;;;;;5.10;1.15;;;;;;;15.46;47.36;99226.78;5073194;28;20029;-89
2020/12/17 11:28:20;;;;;;;8.43;1.50;;;;;;;15.35;48.46;99239.47;5089847;28;20028;-85
2020/12/17 11:30:46;;;;;;;11.43;1.60;;;;;;;15.35;47.67;99227.13;5069464;28;20040;-87
2020/12/17 11:33:11;;;;;;;10.18;1.50;;;;;;;15.73;47.71;99232.91;5082044;28;20020;-84
2020/12/17 11:35:40;;;;;;;8.80;2.10;;;;;;;15.67;46.08;99226.06;5064478;28;20050;-89
2020/12/17 11:38:07;;;;;;;10.77;2.17;;;;;;;16.09;45.55;99221.88;5085086;28;20042;-84